createdAt,value
2022-11-22T00:00:44.125Z,23.63
2022-11-22T00:03:11.288Z,23.58
2022-11-22T00:05:38.345Z,23.92
2022-11-22T00:08:05.818Z,22.63
2022-11-22T00:10:34.688Z,26.25
2022-11-22T00:13:01.561Z,22.15
2022-11-22T00:15:28.822Z,21.42
2022-11-22T00:17:55.671Z,21.35
2022-11-22T00:20:22.452Z,22.17
2022-11-22T00:22:49.409Z,20.67
2022-11-22T00:25:16.222Z,20.90
2022-11-22T00:27:43.534Z,22.63
2022-11-22T00:30:10.955Z,20.98
2022-11-22T00:32:37.855Z,21.52
2022-11-22T00:35:05.291Z,22.65
2022-11-22T00:37:32.366Z,21.90
2022-11-22T00:39:59.152Z,21.30
2022-11-22T00:42:26.053Z,21.23
2022-11-22T00:44:52.823Z,20.38
2022-11-22T00:47:19.674Z,19.60
2022-11-22T00:49:46.404Z,19.88
2022-11-22T00:52:13.301Z,21.60
2022-11-22T00:54:40.099Z,19.42
2022-11-22T00:57:06.827Z,20.67
2022-11-22T00:59:33.603Z,20.27
2022-11-22T01:02:00.393Z,21.42
2022-11-22T01:04:27.188Z,21.88
2022-11-22T01:06:55.000Z,24.70
2022-11-22T01:09:23.784Z,23.95
2022-11-22T01:11:51.143Z,25.00
2022-11-22T01:14:19.939Z,22.45
2022-11-22T01:16:48.019Z,21.35
2022-11-22T01:19:14.987Z,20.05
2022-11-22T01:21:41.885Z,19.00
2022-11-22T01:24:09.012Z,21.42
2022-11-22T01:26:36.363Z,19.92
2022-11-22T01:29:03.431Z,21.00
2022-11-22T01:31:30.412Z,20.55
2022-11-22T01:33:59.049Z,22.48
2022-11-22T01:36:26.702Z,18.65
2022-11-22T01:38:53.703Z,20.33
2022-11-22T01:41:20.502Z,20.08
2022-11-22T01:43:47.278Z,20.85
2022-11-22T01:46:29.282Z,23.15
2022-11-22T01:49:02.448Z,21.75
2022-11-22T01:51:40.463Z,22.63
2022-11-22T01:54:15.964Z,22.00
2022-11-22T01:56:47.760Z,20.80
2022-11-22T01:59:18.533Z,22.67
2022-11-22T02:01:45.410Z,24.35
2022-11-22T02:04:17.265Z,22.08
2022-11-22T02:07:10.282Z,22.35
2022-11-22T02:09:39.402Z,22.25
2022-11-22T02:12:07.368Z,22.45
2022-11-22T02:14:35.861Z,23.00
2022-11-22T02:17:02.907Z,20.40
2022-11-22T02:19:48.506Z,23.45
2022-11-22T02:22:33.573Z,22.67
2022-11-22T02:25:15.779Z,21.90
2022-11-22T02:27:43.183Z,22.40
2022-11-22T02:30:10.591Z,22.30
2022-11-22T02:32:37.512Z,21.55
2022-11-22T02:35:16.107Z,21.75
2022-11-22T02:37:43.172Z,24.65
2022-11-22T02:40:14.781Z,25.13
2022-11-22T02:42:45.766Z,23.02
2022-11-22T02:45:12.586Z,23.45
2022-11-22T02:47:39.354Z,23.13
2022-11-22T02:50:06.897Z,24.33
2022-11-22T02:52:33.628Z,25.42
2022-11-22T02:55:00.357Z,23.65
2022-11-22T02:57:58.101Z,24.42
2022-11-22T03:00:24.979Z,23.02
2022-11-22T03:02:51.928Z,25.23
2022-11-22T03:05:18.837Z,26.05
2022-11-22T03:07:48.109Z,22.85
2022-11-22T03:10:16.150Z,26.13
2022-11-22T03:12:43.191Z,24.77
2022-11-22T03:15:10.378Z,24.90
2022-11-22T03:17:37.336Z,22.58
2022-11-22T03:20:04.915Z,22.55
2022-11-22T03:22:32.113Z,21.88
2022-11-22T03:24:58.950Z,23.08
2022-11-22T03:27:25.758Z,22.38
2022-11-22T03:29:52.529Z,19.88
2022-11-22T03:32:19.391Z,19.55
2022-11-22T03:34:46.195Z,19.80
2022-11-22T03:37:13.044Z,19.90
2022-11-22T03:39:39.813Z,18.92
2022-11-22T03:42:06.701Z,17.67
2022-11-22T03:44:33.528Z,17.38
2022-11-22T03:47:00.346Z,17.25
2022-11-22T03:49:27.355Z,18.67
2022-11-22T03:51:54.247Z,17.33
2022-11-22T03:54:23.322Z,17.10
2022-11-22T03:56:50.123Z,17.25
2022-11-22T03:59:16.820Z,16.58
2022-11-22T04:01:43.639Z,16.90
2022-11-22T04:04:11.607Z,17.63
2022-11-22T04:06:38.703Z,17.38
2022-11-22T04:09:06.013Z,17.58
2022-11-22T04:11:32.864Z,18.20
2022-11-22T04:14:18.051Z,18.77
2022-11-22T04:16:44.782Z,18.33
2022-11-22T04:19:11.580Z,18.15
2022-11-22T04:21:38.410Z,17.67
2022-11-22T04:24:26.480Z,18.63
2022-11-22T04:26:53.679Z,20.02
2022-11-22T04:29:21.155Z,19.17
2022-11-22T04:32:08.496Z,19.25
2022-11-22T04:34:35.921Z,19.02
2022-11-22T04:37:03.569Z,19.67
2022-11-22T04:39:30.665Z,20.63
2022-11-22T04:42:17.141Z,19.55
2022-11-22T04:44:44.949Z,22.02
2022-11-22T04:47:37.030Z,19.60
2022-11-22T04:50:26.757Z,20.00
2022-11-22T04:52:58.022Z,19.20
2022-11-22T04:55:25.190Z,19.65
2022-11-22T04:57:56.090Z,22.50
2022-11-22T05:00:27.646Z,20.15
2022-11-22T05:02:54.501Z,19.67
2022-11-22T05:05:21.311Z,20.08
2022-11-22T05:07:48.081Z,19.15
2022-11-22T05:10:15.165Z,19.70
2022-11-22T05:12:42.742Z,19.00
2022-11-22T05:15:11.229Z,19.27
2022-11-22T05:17:38.372Z,18.83
2022-11-22T05:20:06.488Z,19.10
2022-11-22T05:22:56.289Z,17.85
2022-11-22T05:25:25.656Z,19.00
2022-11-22T05:27:54.582Z,18.65
2022-11-22T05:30:21.329Z,17.17
2022-11-22T05:32:48.077Z,17.55
2022-11-22T05:35:14.928Z,17.38
2022-11-22T05:37:41.704Z,18.30
2022-11-22T05:40:09.183Z,18.77
2022-11-22T05:42:37.454Z,18.30
2022-11-22T05:45:04.609Z,17.73
2022-11-22T05:47:35.670Z,18.23
2022-11-22T05:50:02.924Z,19.05
2022-11-22T05:52:29.722Z,19.45
2022-11-22T05:54:56.440Z,19.00
2022-11-22T05:57:23.389Z,19.55
2022-11-22T05:59:50.196Z,19.35
2022-11-22T06:02:17.005Z,18.27
2022-11-22T06:04:43.825Z,18.85
2022-11-22T06:07:10.739Z,21.00
2022-11-22T06:09:37.622Z,19.73
2022-11-22T06:12:04.746Z,18.75
2022-11-22T06:14:31.467Z,19.70
2022-11-22T06:17:02.099Z,20.27
2022-11-22T06:19:29.056Z,20.20
2022-11-22T06:21:55.955Z,21.08
2022-11-22T06:24:22.642Z,22.83
2022-11-22T06:26:49.378Z,21.58
2022-11-22T06:29:16.117Z,24.38
2022-11-22T06:31:42.819Z,25.77
2022-11-22T06:34:12.375Z,25.98
2022-11-22T06:36:39.605Z,27.65
2022-11-22T06:39:06.769Z,26.88
2022-11-22T06:41:36.691Z,27.42
2022-11-22T06:44:08.852Z,27.42
2022-11-22T06:46:38.250Z,28.75
2022-11-22T06:49:05.972Z,29.00
2022-11-22T06:51:33.614Z,28.27
2022-11-22T06:54:00.466Z,29.90
2022-11-22T06:56:31.565Z,29.13
2022-11-22T06:59:01.961Z,29.05
2022-11-22T07:01:31.977Z,26.90
2022-11-22T07:04:00.566Z,28.42
2022-11-22T07:06:29.973Z,29.15
2022-11-22T07:08:57.020Z,29.98
2022-11-22T07:11:26.658Z,29.40
2022-11-22T07:13:54.909Z,29.30
2022-11-22T07:16:22.771Z,29.45
2022-11-22T07:18:50.167Z,28.08
2022-11-22T07:21:26.528Z,28.00
2022-11-22T07:23:56.410Z,29.33
2022-11-22T07:26:25.339Z,28.70
2022-11-22T07:28:52.626Z,28.70
2022-11-22T07:31:20.305Z,28.17
2022-11-22T07:33:47.616Z,24.48
2022-11-22T07:36:21.967Z,24.77
2022-11-22T07:38:49.724Z,22.75
2022-11-22T07:41:18.008Z,22.50
2022-11-22T07:43:46.156Z,22.50
2022-11-22T07:46:26.451Z,21.35
2022-11-22T07:48:53.751Z,21.23
2022-11-22T07:51:20.810Z,21.98
2022-11-22T07:53:47.884Z,20.65
2022-11-22T07:56:15.456Z,19.92
2022-11-22T07:58:42.840Z,19.60
2022-11-22T08:01:13.016Z,19.85
2022-11-22T08:03:40.981Z,19.13
2022-11-22T08:06:10.354Z,18.35
2022-11-22T08:08:37.901Z,19.30
2022-11-22T08:11:05.912Z,17.98
2022-11-22T08:13:34.951Z,16.60
2022-11-22T08:16:07.994Z,17.13
2022-11-22T08:18:36.530Z,17.00
2022-11-22T08:21:07.529Z,17.40
2022-11-22T08:23:35.344Z,18.77
2022-11-22T08:26:02.631Z,15.98
2022-11-22T08:28:29.604Z,16.25
2022-11-22T08:31:05.128Z,16.98
2022-11-22T08:33:32.157Z,15.75
2022-11-22T08:36:00.381Z,16.30
2022-11-22T08:38:27.772Z,15.82
2022-11-22T08:40:55.021Z,15.80
2022-11-22T08:43:21.997Z,15.30
2022-11-22T08:45:54.375Z,16.30
2022-11-22T08:48:22.576Z,16.30
2022-11-22T08:50:54.776Z,15.90
2022-11-22T08:53:22.149Z,15.57
2022-11-22T08:55:49.471Z,15.25
2022-11-22T08:58:16.631Z,15.68
2022-11-22T09:00:44.065Z,14.90
2022-11-22T09:03:12.178Z,14.63
2022-11-22T09:08:27.208Z,15.73
2022-11-22T09:10:56.284Z,14.57
2022-11-22T09:13:23.283Z,15.73
2022-11-22T09:15:50.211Z,15.13
2022-11-22T09:18:17.147Z,14.88
2022-11-22T09:20:44.139Z,14.50
2022-11-22T09:23:11.125Z,16.48
2022-11-22T09:25:38.158Z,14.27
2022-11-22T09:28:05.123Z,15.55
2022-11-22T09:30:32.256Z,14.82
2022-11-22T09:32:59.291Z,16.20
2022-11-22T09:35:26.305Z,14.48
2022-11-22T09:37:53.244Z,14.00
2022-11-22T09:40:20.363Z,13.90
2022-11-22T09:42:59.429Z,15.55
2022-11-22T09:45:32.168Z,15.32
2022-11-22T09:48:19.783Z,15.52
2022-11-22T09:50:57.225Z,15.52
2022-11-22T09:53:37.031Z,15.20
2022-11-22T09:56:10.968Z,15.68
2022-11-22T09:58:41.155Z,16.13
2022-11-22T10:01:24.269Z,15.18
2022-11-22T10:04:13.163Z,16.40
2022-11-22T10:06:46.391Z,15.77
2022-11-22T10:09:47.187Z,15.48
2022-11-22T10:12:22.547Z,14.50
2022-11-22T10:15:07.252Z,16.27
2022-11-22T10:17:46.572Z,15.23
2022-11-22T10:20:22.608Z,17.52
2022-11-22T10:22:50.095Z,15.93
2022-11-22T10:25:21.084Z,16.42
2022-11-22T10:28:00.807Z,16.13
2022-11-22T10:30:35.913Z,15.57
2022-11-22T10:33:38.864Z,15.18
2022-11-22T10:36:28.914Z,15.13
2022-11-22T10:39:34.867Z,15.20
2022-11-22T10:42:20.678Z,15.20
2022-11-22T10:45:09.174Z,15.60
2022-11-22T10:47:54.895Z,15.82
2022-11-22T10:50:33.652Z,15.60
2022-11-22T10:53:19.309Z,14.68
2022-11-22T10:56:12.477Z,15.60
2022-11-22T10:59:16.949Z,15.60
2022-11-22T11:02:02.337Z,14.25
2022-11-22T11:04:33.636Z,13.73
2022-11-22T11:07:12.481Z,14.48
2022-11-22T11:12:55.139Z,15.45
2022-11-22T11:15:33.623Z,15.95
2022-11-22T11:18:08.635Z,14.48
2022-11-22T11:20:41.234Z,15.02
2022-11-22T11:23:15.492Z,14.85
2022-11-22T11:25:45.822Z,14.35
2022-11-22T11:28:31.051Z,14.80
2022-11-22T11:31:13.535Z,14.50
2022-11-22T11:33:42.103Z,14.25
2022-11-22T11:36:11.688Z,16.08
2022-11-22T11:38:55.984Z,14.80
2022-11-22T11:41:38.877Z,14.32
2022-11-22T11:44:29.303Z,14.02
2022-11-22T11:46:56.709Z,13.90
2022-11-22T11:49:36.362Z,14.20
2022-11-22T11:52:08.408Z,13.40
2022-11-22T11:54:46.644Z,13.35
2022-11-22T11:57:36.059Z,13.35
2022-11-22T12:00:06.127Z,13.45
2022-11-22T12:02:41.427Z,14.05
2022-11-22T12:05:32.915Z,13.15
2022-11-22T12:08:03.467Z,12.70
2022-11-22T12:10:36.975Z,12.88
2022-11-22T12:13:27.448Z,12.82
2022-11-22T12:16:30.448Z,11.02
2022-11-22T12:19:31.461Z,11.95
2022-11-22T12:22:29.423Z,13.32
2022-11-22T12:25:36.606Z,12.18
2022-11-22T12:28:21.855Z,11.65
2022-11-22T12:31:12.041Z,12.35
2022-11-22T12:33:47.350Z,12.10
2022-11-22T12:36:36.891Z,10.70
2022-11-22T12:39:06.815Z,11.07
2022-11-22T12:41:36.095Z,11.35
2022-11-22T12:44:07.103Z,12.25
2022-11-22T12:46:46.616Z,12.20
2022-11-22T12:49:35.324Z,11.90
2022-11-22T12:52:23.753Z,12.43
2022-11-22T12:55:27.885Z,12.25
2022-11-22T13:00:24.754Z,12.25
2022-11-22T13:03:07.917Z,11.85
2022-11-22T13:05:50.226Z,12.88
2022-11-22T13:08:37.693Z,12.32
2022-11-22T13:11:37.637Z,13.23
2022-11-22T13:14:21.174Z,12.70
2022-11-22T13:16:51.280Z,11.75
2022-11-22T13:19:21.647Z,13.13
2022-11-22T13:22:26.344Z,12.77
2022-11-22T13:25:08.330Z,13.18
2022-11-22T13:28:03.021Z,12.13
2022-11-22T13:30:33.295Z,13.07
2022-11-22T13:33:01.466Z,13.65
2022-11-22T13:35:34.277Z,13.52
2022-11-22T13:38:05.326Z,13.07
2022-11-22T13:40:43.374Z,13.75
2022-11-22T13:43:21.995Z,12.95
2022-11-22T13:46:04.543Z,13.77
2022-11-22T13:48:40.558Z,13.32
2022-11-22T13:51:17.179Z,14.32
2022-11-22T13:53:45.619Z,12.90
2022-11-22T13:56:15.609Z,13.77
2022-11-22T13:58:51.422Z,13.95
2022-11-22T14:01:37.286Z,12.98
2022-11-22T14:04:16.697Z,14.00
2022-11-22T14:07:06.304Z,13.98
2022-11-22T14:09:35.822Z,15.38
2022-11-22T14:12:24.248Z,15.07
2022-11-22T14:15:30.331Z,13.18
2022-11-22T14:18:18.609Z,14.27
2022-11-22T14:21:07.093Z,15.30
2022-11-22T14:24:12.923Z,15.02
2022-11-22T14:26:53.763Z,14.60
2022-11-22T14:30:08.284Z,15.02
2022-11-22T14:32:42.658Z,15.90
2022-11-22T14:35:24.920Z,15.23
2022-11-22T14:38:02.795Z,15.50
2022-11-22T14:40:39.777Z,15.25
2022-11-22T14:43:34.586Z,15.00
2022-11-22T14:46:50.985Z,15.50
2022-11-22T14:49:42.712Z,15.18
2022-11-22T14:52:29.911Z,14.40
2022-11-22T14:55:02.890Z,14.77
2022-11-22T15:00:15.941Z,14.10
2022-11-22T15:03:01.527Z,14.20
2022-11-22T15:09:13.165Z,14.60
2022-11-22T15:09:19.916Z,14.20
2022-11-22T15:11:41.179Z,13.68
2022-11-22T15:14:26.611Z,14.77
2022-11-22T15:59:43.059Z,15.13
2022-11-22T16:02:25.498Z,15.18
2022-11-22T16:06:10.196Z,16.10
2022-11-22T16:07:50.595Z,15.35
2022-11-22T16:10:33.331Z,16.02
2022-11-22T16:13:13.294Z,15.40
2022-11-22T16:15:40.312Z,14.93
2022-11-22T16:18:14.871Z,14.68
2022-11-22T16:20:43.310Z,15.60
2022-11-22T16:23:09.984Z,15.07
2022-11-22T16:25:45.457Z,15.38
2022-11-22T16:28:29.243Z,14.18
2022-11-22T16:31:01.096Z,14.02
2022-11-22T16:33:28.156Z,14.35
2022-11-22T16:35:56.912Z,14.52
2022-11-22T16:38:24.762Z,13.75
2022-11-22T16:40:53.100Z,12.88
2022-11-22T16:43:24.834Z,14.15
2022-11-22T16:45:52.002Z,14.43
2022-11-22T16:48:31.901Z,14.55
2022-11-22T16:51:03.795Z,13.85
2022-11-22T16:53:45.977Z,13.63
2022-11-22T16:56:22.751Z,14.65
2022-11-22T16:58:51.108Z,14.45
2022-11-22T17:01:25.491Z,13.07
2022-11-22T17:03:55.528Z,14.98
2022-11-22T17:06:25.156Z,14.02
2022-11-22T17:08:54.648Z,13.35
2022-11-22T17:11:27.341Z,13.20
2022-11-22T17:13:54.529Z,13.55
2022-11-22T17:16:21.339Z,13.55
2022-11-22T17:18:48.454Z,14.98
2022-11-22T17:21:32.958Z,12.15
2022-11-22T17:24:06.563Z,13.52
2022-11-22T17:26:34.854Z,13.55
2022-11-22T17:29:02.069Z,13.77
2022-11-22T17:31:29.729Z,12.35
2022-11-22T17:33:58.709Z,12.55
2022-11-22T17:36:35.977Z,12.48
2022-11-22T17:39:08.604Z,11.85
2022-11-22T17:41:35.674Z,13.02
2022-11-22T17:44:04.147Z,12.50
2022-11-22T17:46:32.250Z,12.65
2022-11-22T17:49:01.195Z,12.00
2022-11-22T17:51:29.344Z,12.52
2022-11-22T17:53:58.382Z,12.30
2022-11-22T17:56:27.250Z,11.93
2022-11-22T17:58:54.337Z,11.75
2022-11-22T18:01:22.899Z,12.40
2022-11-22T18:03:50.153Z,11.70
2022-11-22T18:06:18.389Z,11.68
2022-11-22T18:08:47.256Z,12.75
2022-11-22T18:11:14.792Z,12.45
2022-11-22T18:13:42.005Z,11.80
2022-11-22T18:16:13.979Z,12.75
2022-11-22T18:18:56.867Z,11.35
2022-11-22T18:21:25.735Z,11.75
2022-11-22T18:23:53.360Z,11.55
2022-11-22T18:31:57.106Z,10.43
2022-11-22T18:34:25.260Z,11.20
2022-11-22T18:36:57.699Z,11.52
2022-11-22T18:39:30.747Z,10.52
2022-11-22T18:41:59.930Z,10.35
2022-11-22T18:44:27.310Z,9.73
2022-11-22T18:46:54.136Z,10.52
2022-11-22T18:49:21.081Z,9.52
2022-11-22T18:51:48.018Z,10.57
2022-11-22T18:54:14.979Z,10.95
2022-11-22T18:56:42.414Z,10.02
2022-11-22T18:59:17.790Z,10.02
2022-11-22T19:01:44.833Z,10.18
2022-11-22T19:04:25.197Z,10.25
2022-11-22T19:07:00.901Z,10.45
2022-11-22T19:09:32.870Z,9.90
2022-11-22T19:12:00.233Z,9.55
2022-11-22T19:14:33.848Z,9.70
2022-11-22T19:17:00.860Z,9.30
2022-11-22T19:19:32.460Z,9.25
2022-11-22T19:22:18.360Z,8.93
2022-11-22T19:24:49.877Z,9.30
2022-11-22T19:27:18.182Z,8.98
2022-11-22T19:29:48.154Z,7.88
2022-11-22T19:32:15.247Z,8.70
2022-11-22T19:34:42.732Z,9.27
2022-11-22T19:37:13.433Z,9.88
2022-11-22T19:39:41.381Z,9.32
2022-11-22T19:42:08.411Z,9.80
2022-11-22T19:44:38.167Z,8.70
2022-11-22T19:47:05.463Z,9.20
2022-11-22T19:49:32.470Z,9.95
2022-11-22T19:51:59.367Z,8.80
2022-11-22T19:54:26.352Z,10.07
2022-11-22T19:56:53.437Z,9.32
2022-11-22T19:59:20.560Z,9.20
2022-11-22T20:01:47.500Z,9.85
2022-11-22T20:04:15.509Z,11.82
2022-11-22T20:06:45.937Z,10.00
2022-11-22T20:11:44.469Z,9.40
2022-11-22T20:14:11.366Z,7.88
2022-11-22T20:16:42.906Z,8.07
2022-11-22T20:19:11.423Z,8.10
2022-11-22T20:21:38.780Z,8.73
2022-11-22T20:24:06.383Z,8.00
2022-11-22T20:26:34.441Z,8.73
2022-11-22T20:29:06.968Z,7.00
2022-11-22T20:31:35.690Z,6.70
2022-11-22T20:34:03.511Z,6.68
2022-11-22T20:36:33.282Z,5.95
2022-11-22T20:39:04.150Z,6.30
2022-11-22T20:41:36.179Z,5.55
2022-11-22T20:44:03.090Z,5.40
2022-11-22T20:46:29.920Z,6.72
2022-11-22T20:48:58.182Z,5.32
2022-11-22T20:51:28.172Z,5.90
2022-11-22T20:53:56.904Z,6.95
2022-11-22T20:56:24.547Z,6.00
2022-11-22T20:58:52.524Z,6.25
2022-11-22T21:01:22.353Z,8.57
2022-11-22T21:03:49.521Z,8.00
2022-11-22T21:06:18.011Z,7.53
2022-11-22T21:08:46.006Z,7.72
2022-11-22T21:11:18.947Z,7.00
2022-11-22T21:13:47.495Z,7.25
2022-11-22T21:16:26.202Z,6.38
2022-11-22T21:18:58.252Z,8.10
2022-11-22T21:21:26.184Z,8.60
2022-11-22T21:23:55.423Z,7.45
2022-11-22T21:26:23.291Z,7.13
2022-11-22T21:28:50.384Z,6.40
2022-11-22T21:31:17.236Z,6.05
2022-11-22T21:33:45.741Z,5.13
2022-11-22T21:36:13.229Z,4.68
2022-11-22T21:38:40.161Z,4.50
2022-11-22T21:41:41.475Z,4.63
2022-11-22T21:43:59.278Z,4.60
2022-11-22T21:46:28.704Z,5.05
2022-11-22T21:48:56.166Z,4.70
2022-11-22T21:51:28.477Z,4.72
2022-11-22T21:53:59.247Z,4.35
2022-11-22T21:56:27.993Z,5.00
2022-11-22T21:58:54.802Z,4.53
2022-11-22T22:01:21.905Z,4.97
2022-11-22T22:03:49.082Z,5.88
2022-11-22T22:06:16.043Z,4.90
2022-11-22T22:08:42.916Z,5.00
2022-11-22T22:11:09.759Z,4.32
2022-11-22T22:13:36.688Z,4.65
2022-11-22T22:16:06.922Z,4.15
2022-11-22T22:18:37.769Z,5.15
2022-11-22T22:21:09.561Z,5.05
2022-11-22T22:23:38.819Z,5.70
2022-11-22T22:26:08.018Z,5.95
2022-11-22T22:28:37.183Z,5.95
2022-11-22T22:31:12.350Z,5.78
2022-11-22T22:33:41.418Z,4.20
2022-11-22T22:36:10.019Z,4.57
2022-11-22T22:38:36.866Z,4.78
2022-11-22T22:41:05.429Z,4.13
2022-11-22T22:43:34.504Z,5.22
2022-11-22T22:46:06.869Z,5.82
2022-11-22T22:48:34.393Z,5.07
2022-11-22T22:51:22.909Z,5.28
2022-11-22T22:53:52.316Z,5.82
2022-11-22T22:56:21.073Z,5.38
2022-11-22T22:58:48.583Z,4.93
2022-11-22T23:01:19.051Z,4.53
2022-11-22T23:03:50.224Z,4.80
2022-11-22T23:06:17.822Z,5.10
2022-11-22T23:08:46.891Z,4.13
2022-11-22T23:11:14.230Z,4.50
2022-11-22T23:13:43.218Z,5.00
2022-11-22T23:16:12.963Z,4.72
2022-11-22T23:18:41.913Z,4.57
2022-11-22T23:21:15.482Z,4.35
2022-11-22T23:23:42.344Z,4.05
2022-11-22T23:26:13.122Z,3.92
2022-11-22T23:28:40.075Z,4.20
2022-11-22T23:31:15.086Z,3.50
2022-11-22T23:33:43.132Z,3.78
2022-11-22T23:36:16.432Z,2.60
2022-11-22T23:38:46.424Z,2.70
2022-11-22T23:41:20.138Z,3.03
2022-11-22T23:43:51.695Z,2.70
2022-11-22T23:46:18.437Z,2.38
2022-11-22T23:48:46.780Z,2.92
2022-11-22T23:51:14.875Z,2.95
2022-11-22T23:53:42.134Z,2.20
2022-11-22T23:56:11.500Z,2.65
2022-11-22T23:58:38.946Z,2.78
